I69 weather

Clermont County Airport
Batavia, Ohio, United States

Public forecast

Using degrees Fahrenheit for public forecast. Weather courtesy of forecast.io.

METAR (pilot weather report)

Retrieved 2019/05/24 19:15 UTC (0 seconds ago):

KI69 241915Z AUTO 25009G16KT 10SM SCT046 SCT060 SCT065 29/20 A3011 RMK AO2 T02920201

TAF (pilot weather forecast)

Closest forecast is Cincinnati Municipal Airport Lunken Field, 9.8 nm (18.2 km) W. Retrieved 2019/05/24 18:42 UTC (26 minutes ago):

TAF KLUK 241741Z 2418/2518 24008KT P6SM SCT040 FM250100 20004KT P6SM FEW250 FM250600 00000KT 4SM BR FEW250 FM250900 00000KT 4SM BR SCT060 TEMPO 2509/2512 2SM BR FM251300 20004KT P6SM SCT060 FM251500 24010G20KT P6SM SCT040